sensor_id;sensor_type;location;lat;lon;timestamp;P1;durP1;ratioP1;P2;durP2;ratioP2
60494;SDS011;46342;49.046;11.920;2023-03-23T00:00:44;3.08;;;1.50;;
60494;SDS011;46342;49.046;11.920;2023-03-23T00:03:10;2.58;;;1.67;;
60494;SDS011;46342;49.046;11.920;2023-03-23T00:05:37;2.95;;;2.10;;
60494;SDS011;46342;49.046;11.920;2023-03-23T00:08:06;2.50;;;1.70;;
60494;SDS011;46342;49.046;11.920;2023-03-23T00:10:34;2.40;;;1.70;;
60494;SDS011;46342;49.046;11.920;2023-03-23T00:13:00;4.95;;;2.08;;
60494;SDS011;46342;49.046;11.920;2023-03-23T00:15:29;2.55;;;1.80;;
60494;SDS011;46342;49.046;11.920;2023-03-23T00:17:58;3.13;;;1.88;;
60494;SDS011;46342;49.046;11.920;2023-03-23T00:20:31;2.30;;;1.70;;
60494;SDS011;46342;49.046;11.920;2023-03-23T00:23:05;3.63;;;1.60;;
60494;SDS011;46342;49.046;11.920;2023-03-23T00:25:32;8.20;;;2.00;;
60494;SDS011;46342;49.046;11.920;2023-03-23T00:27:57;2.85;;;1.63;;
60494;SDS011;46342;49.046;11.920;2023-03-23T00:30:23;2.50;;;1.50;;
60494;SDS011;46342;49.046;11.920;2023-03-23T00:32:49;2.45;;;1.70;;
60494;SDS011;46342;49.046;11.920;2023-03-23T00:35:15;2.10;;;1.75;;
60494;SDS011;46342;49.046;11.920;2023-03-23T00:37:42;1.73;;;1.52;;
60494;SDS011;46342;49.046;11.920;2023-03-23T00:40:09;2.15;;;1.60;;
60494;SDS011;46342;49.046;11.920;2023-03-23T00:42:35;2.33;;;1.63;;
60494;SDS011;46342;49.046;11.920;2023-03-23T00:45:03;1.90;;;1.55;;
60494;SDS011;46342;49.046;11.920;2023-03-23T00:47:35;1.60;;;1.42;;
60494;SDS011;46342;49.046;11.920;2023-03-23T00:50:02;2.28;;;1.38;;
60494;SDS011;46342;49.046;11.920;2023-03-23T00:52:28;9.38;;;1.55;;
60494;SDS011;46342;49.046;11.920;2023-03-23T00:54:54;2.55;;;1.60;;
60494;SDS011;46342;49.046;11.920;2023-03-23T00:57:20;1.55;;;1.45;;
60494;SDS011;46342;49.046;11.920;2023-03-23T00:59:49;3.13;;;1.98;;
60494;SDS011;46342;49.046;11.920;2023-03-23T01:02:17;2.00;;;1.60;;
60494;SDS011;46342;49.046;11.920;2023-03-23T01:04:44;1.60;;;1.40;;
60494;SDS011;46342;49.046;11.920;2023-03-23T01:07:10;1.83;;;1.40;;
60494;SDS011;46342;49.046;11.920;2023-03-23T01:09:39;2.67;;;1.40;;
60494;SDS011;46342;49.046;11.920;2023-03-23T01:12:05;1.50;;;1.40;;
60494;SDS011;46342;49.046;11.920;2023-03-23T01:14:31;2.17;;;1.45;;
60494;SDS011;46342;49.046;11.920;2023-03-23T01:16:56;3.90;;;1.70;;
60494;SDS011;46342;49.046;11.920;2023-03-23T01:19:22;3.92;;;1.45;;
60494;SDS011;46342;49.046;11.920;2023-03-23T01:21:48;2.45;;;1.48;;
60494;SDS011;46342;49.046;11.920;2023-03-23T01:24:13;2.67;;;1.30;;
60494;SDS011;46342;49.046;11.920;2023-03-23T01:26:39;2.10;;;1.40;;
60494;SDS011;46342;49.046;11.920;2023-03-23T01:29:05;1.27;;;1.17;;
60494;SDS011;46342;49.046;11.920;2023-03-23T01:31:30;1.33;;;1.23;;
60494;SDS011;46342;49.046;11.920;2023-03-23T01:33:56;2.00;;;1.38;;
60494;SDS011;46342;49.046;11.920;2023-03-23T01:36:23;1.65;;;1.33;;
60494;SDS011;46342;49.046;11.920;2023-03-23T01:38:51;2.00;;;1.80;;
60494;SDS011;46342;49.046;11.920;2023-03-23T01:41:18;2.07;;;1.43;;
60494;SDS011;46342;49.046;11.920;2023-03-23T01:46:29;1.58;;;1.48;;
60494;SDS011;46342;49.046;11.920;2023-03-23T01:49:12;1.58;;;1.33;;
60494;SDS011;46342;49.046;11.920;2023-03-23T01:51:43;2.40;;;1.42;;
60494;SDS011;46342;49.046;11.920;2023-03-23T01:54:22;2.58;;;1.75;;
60494;SDS011;46342;49.046;11.920;2023-03-23T01:57:10;1.80;;;1.70;;
60494;SDS011;46342;49.046;11.920;2023-03-23T01:59:36;2.50;;;1.40;;
60494;SDS011;46342;49.046;11.920;2023-03-23T02:02:01;1.65;;;1.40;;
60494;SDS011;46342;49.046;11.920;2023-03-23T02:04:27;2.10;;;1.67;;
60494;SDS011;46342;49.046;11.920;2023-03-23T02:09:22;1.55;;;1.42;;
60494;SDS011;46342;49.046;11.920;2023-03-23T02:11:50;2.42;;;1.50;;
60494;SDS011;46342;49.046;11.920;2023-03-23T02:14:18;1.85;;;1.50;;
60494;SDS011;46342;49.046;11.920;2023-03-23T02:16:47;1.88;;;1.60;;
60494;SDS011;46342;49.046;11.920;2023-03-23T02:20:17;2.00;;;1.77;;
60494;SDS011;46342;49.046;11.920;2023-03-23T02:22:40;2.40;;;1.67;;
60494;SDS011;46342;49.046;11.920;2023-03-23T02:25:34;2.33;;;1.70;;
60494;SDS011;46342;49.046;11.920;2023-03-23T02:31:09;2.65;;;1.33;;
60494;SDS011;46342;49.046;11.920;2023-03-23T02:33:58;2.10;;;1.42;;
60494;SDS011;46342;49.046;11.920;2023-03-23T02:36:31;1.90;;;1.70;;
60494;SDS011;46342;49.046;11.920;2023-03-23T02:39:18;2.65;;;1.60;;
60494;SDS011;46342;49.046;11.920;2023-03-23T02:41:48;2.75;;;1.67;;
60494;SDS011;46342;49.046;11.920;2023-03-23T02:44:18;2.10;;;1.50;;
60494;SDS011;46342;49.046;11.920;2023-03-23T02:46:44;2.33;;;1.60;;
60494;SDS011;46342;49.046;11.920;2023-03-23T02:49:11;2.72;;;1.40;;
60494;SDS011;46342;49.046;11.920;2023-03-23T02:51:40;2.20;;;1.27;;
60494;SDS011;46342;49.046;11.920;2023-03-23T02:54:10;1.98;;;1.63;;
60494;SDS011;46342;49.046;11.920;2023-03-23T02:56:36;2.03;;;1.58;;
60494;SDS011;46342;49.046;11.920;2023-03-23T02:59:03;1.85;;;1.50;;
60494;SDS011;46342;49.046;11.920;2023-03-23T03:09:19;1.60;;;1.30;;
60494;SDS011;46342;49.046;11.920;2023-03-23T03:11:57;1.38;;;1.27;;
60494;SDS011;46342;49.046;11.920;2023-03-23T03:14:34;1.83;;;1.50;;
60494;SDS011;46342;49.046;11.920;2023-03-23T03:17:09;2.05;;;1.50;;
60494;SDS011;46342;49.046;11.920;2023-03-23T03:19:48;1.52;;;1.42;;
60494;SDS011;46342;49.046;11.920;2023-03-23T03:22:16;1.83;;;1.50;;
60494;SDS011;46342;49.046;11.920;2023-03-23T03:24:46;2.10;;;1.50;;
60494;SDS011;46342;49.046;11.920;2023-03-23T03:27:13;1.98;;;1.52;;
60494;SDS011;46342;49.046;11.920;2023-03-23T03:29:43;1.90;;;1.65;;
60494;SDS011;46342;49.046;11.920;2023-03-23T03:32:17;1.77;;;1.38;;
60494;SDS011;46342;49.046;11.920;2023-03-23T03:34:49;2.03;;;1.73;;
60494;SDS011;46342;49.046;11.920;2023-03-23T03:37:15;2.20;;;2.00;;
60494;SDS011;46342;49.046;11.920;2023-03-23T03:39:42;1.75;;;1.65;;
60494;SDS011;46342;49.046;11.920;2023-03-23T03:42:08;1.60;;;1.50;;
60494;SDS011;46342;49.046;11.920;2023-03-23T03:44:34;2.00;;;1.80;;
60494;SDS011;46342;49.046;11.920;2023-03-23T03:47:02;2.40;;;1.63;;
60494;SDS011;46342;49.046;11.920;2023-03-23T03:49:28;2.38;;;1.35;;
60494;SDS011;46342;49.046;11.920;2023-03-23T03:51:56;1.63;;;1.48;;
60494;SDS011;46342;49.046;11.920;2023-03-23T03:54:22;1.77;;;1.60;;
60494;SDS011;46342;49.046;11.920;2023-03-23T03:56:47;2.85;;;1.63;;
60494;SDS011;46342;49.046;11.920;2023-03-23T03:59:16;1.42;;;1.33;;
60494;SDS011;46342;49.046;11.920;2023-03-23T04:01:42;2.33;;;1.63;;
60494;SDS011;46342;49.046;11.920;2023-03-23T04:04:08;3.10;;;1.98;;
60494;SDS011;46342;49.046;11.920;2023-03-23T04:06:33;3.22;;;1.50;;
60494;SDS011;46342;49.046;11.920;2023-03-23T04:09:00;1.53;;;1.43;;
60494;SDS011;46342;49.046;11.920;2023-03-23T04:11:30;1.60;;;1.50;;
60494;SDS011;46342;49.046;11.920;2023-03-23T04:13:56;1.38;;;1.27;;
60494;SDS011;46342;49.046;11.920;2023-03-23T04:16:21;3.03;;;1.60;;
60494;SDS011;46342;49.046;11.920;2023-03-23T04:18:47;1.30;;;1.20;;
60494;SDS011;46342;49.046;11.920;2023-03-23T04:21:13;1.48;;;1.35;;
60494;SDS011;46342;49.046;11.920;2023-03-23T04:23:39;3.35;;;1.27;;
60494;SDS011;46342;49.046;11.920;2023-03-23T04:26:05;1.40;;;1.30;;
60494;SDS011;46342;49.046;11.920;2023-03-23T04:28:31;1.80;;;1.48;;
60494;SDS011;46342;49.046;11.920;2023-03-23T04:30:58;2.28;;;1.58;;
60494;SDS011;46342;49.046;11.920;2023-03-23T04:33:26;2.22;;;1.23;;
60494;SDS011;46342;49.046;11.920;2023-03-23T04:35:53;3.05;;;1.40;;
60494;SDS011;46342;49.046;11.920;2023-03-23T04:38:20;2.60;;;1.50;;
60494;SDS011;46342;49.046;11.920;2023-03-23T04:40:48;2.00;;;1.55;;
60494;SDS011;46342;49.046;11.920;2023-03-23T04:43:19;1.90;;;1.50;;
60494;SDS011;46342;49.046;11.920;2023-03-23T04:45:46;4.13;;;1.50;;
60494;SDS011;46342;49.046;11.920;2023-03-23T04:48:17;2.20;;;1.42;;
60494;SDS011;46342;49.046;11.920;2023-03-23T04:50:43;1.90;;;1.70;;
60494;SDS011;46342;49.046;11.920;2023-03-23T04:53:09;2.97;;;1.33;;
60494;SDS011;46342;49.046;11.920;2023-03-23T04:55:36;2.20;;;1.90;;
60494;SDS011;46342;49.046;11.920;2023-03-23T04:58:06;1.90;;;1.70;;
60494;SDS011;46342;49.046;11.920;2023-03-23T05:00:33;2.63;;;1.40;;
60494;SDS011;46342;49.046;11.920;2023-03-23T05:02:59;1.88;;;1.67;;
60494;SDS011;46342;49.046;11.920;2023-03-23T05:05:26;1.95;;;1.55;;
60494;SDS011;46342;49.046;11.920;2023-03-23T05:07:52;4.85;;;1.90;;
60494;SDS011;46342;49.046;11.920;2023-03-23T05:10:18;2.50;;;2.00;;
60494;SDS011;46342;49.046;11.920;2023-03-23T05:12:45;2.47;;;1.90;;
60494;SDS011;46342;49.046;11.920;2023-03-23T05:15:11;3.15;;;2.10;;
60494;SDS011;46342;49.046;11.920;2023-03-23T05:17:38;6.10;;;2.50;;
60494;SDS011;46342;49.046;11.920;2023-03-23T05:20:05;2.60;;;2.20;;
60494;SDS011;46342;49.046;11.920;2023-03-23T05:22:36;2.10;;;1.90;;
60494;SDS011;46342;49.046;11.920;2023-03-23T05:25:02;4.32;;;2.15;;
60494;SDS011;46342;49.046;11.920;2023-03-23T05:27:29;2.80;;;2.25;;
60494;SDS011;46342;49.046;11.920;2023-03-23T05:29:55;2.38;;;2.05;;
60494;SDS011;46342;49.046;11.920;2023-03-23T05:32:23;2.70;;;2.22;;
60494;SDS011;46342;49.046;11.920;2023-03-23T05:34:59;2.33;;;2.08;;
60494;SDS011;46342;49.046;11.920;2023-03-23T05:37:26;3.25;;;2.17;;
60494;SDS011;46342;49.046;11.920;2023-03-23T05:39:58;3.65;;;2.33;;
60494;SDS011;46342;49.046;11.920;2023-03-23T05:42:29;3.30;;;2.70;;
60494;SDS011;46342;49.046;11.920;2023-03-23T05:44:55;5.45;;;2.40;;
60494;SDS011;46342;49.046;11.920;2023-03-23T05:47:21;2.88;;;2.30;;
60494;SDS011;46342;49.046;11.920;2023-03-23T05:49:47;2.90;;;2.28;;
60494;SDS011;46342;49.046;11.920;2023-03-23T05:52:12;3.05;;;2.33;;
60494;SDS011;46342;49.046;11.920;2023-03-23T05:54:38;3.00;;;2.22;;
60494;SDS011;46342;49.046;11.920;2023-03-23T05:57:04;3.08;;;2.30;;
60494;SDS011;46342;49.046;11.920;2023-03-23T05:59:30;3.03;;;2.60;;
60494;SDS011;46342;49.046;11.920;2023-03-23T06:01:56;4.22;;;2.40;;
60494;SDS011;46342;49.046;11.920;2023-03-23T06:04:22;4.00;;;2.50;;
60494;SDS011;46342;49.046;11.920;2023-03-23T06:06:49;3.35;;;2.38;;
60494;SDS011;46342;49.046;11.920;2023-03-23T06:09:16;3.20;;;2.38;;
60494;SDS011;46342;49.046;11.920;2023-03-23T06:11:42;3.67;;;2.13;;
60494;SDS011;46342;49.046;11.920;2023-03-23T06:14:08;3.35;;;2.28;;
60494;SDS011;46342;49.046;11.920;2023-03-23T06:16:34;3.05;;;2.60;;
60494;SDS011;46342;49.046;11.920;2023-03-23T06:18:59;3.40;;;2.05;;
60494;SDS011;46342;49.046;11.920;2023-03-23T06:21:25;2.13;;;1.90;;
60494;SDS011;46342;49.046;11.920;2023-03-23T06:23:51;2.47;;;2.10;;
60494;SDS011;46342;49.046;11.920;2023-03-23T06:26:18;2.80;;;2.33;;
60494;SDS011;46342;49.046;11.920;2023-03-23T06:28:45;3.78;;;2.15;;
60494;SDS011;46342;49.046;11.920;2023-03-23T06:31:10;2.67;;;1.92;;
60494;SDS011;46342;49.046;11.920;2023-03-23T06:33:36;2.85;;;2.17;;
60494;SDS011;46342;49.046;11.920;2023-03-23T06:36:03;3.22;;;2.13;;
60494;SDS011;46342;49.046;11.920;2023-03-23T06:38:29;2.38;;;2.17;;
60494;SDS011;46342;49.046;11.920;2023-03-23T06:40:56;2.70;;;2.28;;
60494;SDS011;46342;49.046;11.920;2023-03-23T06:43:22;2.35;;;1.90;;
60494;SDS011;46342;49.046;11.920;2023-03-23T06:45:49;4.97;;;2.30;;
60494;SDS011;46342;49.046;11.920;2023-03-23T06:48:16;2.97;;;2.03;;
60494;SDS011;46342;49.046;11.920;2023-03-23T06:50:42;3.95;;;1.92;;
60494;SDS011;46342;49.046;11.920;2023-03-23T06:53:09;2.72;;;2.47;;
60494;SDS011;46342;49.046;11.920;2023-03-23T06:55:35;3.08;;;1.98;;
60494;SDS011;46342;49.046;11.920;2023-03-23T06:58:02;4.60;;;2.63;;
60494;SDS011;46342;49.046;11.920;2023-03-23T07:00:30;2.65;;;1.83;;
60494;SDS011;46342;49.046;11.920;2023-03-23T07:02:56;2.28;;;1.85;;
60494;SDS011;46342;49.046;11.920;2023-03-23T07:05:22;2.67;;;1.80;;
60494;SDS011;46342;49.046;11.920;2023-03-23T07:07:48;2.95;;;2.13;;
60494;SDS011;46342;49.046;11.920;2023-03-23T07:10:13;4.22;;;2.33;;
60494;SDS011;46342;49.046;11.920;2023-03-23T07:12:40;3.63;;;2.15;;
60494;SDS011;46342;49.046;11.920;2023-03-23T07:15:07;2.80;;;2.25;;
60494;SDS011;46342;49.046;11.920;2023-03-23T07:17:35;1.90;;;1.67;;
60494;SDS011;46342;49.046;11.920;2023-03-23T07:20:01;2.65;;;2.00;;
60494;SDS011;46342;49.046;11.920;2023-03-23T07:22:27;2.95;;;2.08;;
60494;SDS011;46342;49.046;11.920;2023-03-23T07:24:53;2.28;;;2.08;;
60494;SDS011;46342;49.046;11.920;2023-03-23T07:27:18;4.60;;;2.25;;
60494;SDS011;46342;49.046;11.920;2023-03-23T07:29:44;2.75;;;2.13;;
60494;SDS011;46342;49.046;11.920;2023-03-23T07:32:10;5.20;;;2.90;;
60494;SDS011;46342;49.046;11.920;2023-03-23T07:34:37;5.22;;;2.60;;
60494;SDS011;46342;49.046;11.920;2023-03-23T07:37:03;5.15;;;2.10;;
60494;SDS011;46342;49.046;11.920;2023-03-23T07:39:29;2.08;;;1.60;;
60494;SDS011;46342;49.046;11.920;2023-03-23T07:41:54;3.00;;;2.30;;
60494;SDS011;46342;49.046;11.920;2023-03-23T07:44:20;3.03;;;1.95;;
60494;SDS011;46342;49.046;11.920;2023-03-23T07:46:47;2.05;;;1.73;;
60494;SDS011;46342;49.046;11.920;2023-03-23T07:49:12;2.33;;;1.98;;
60494;SDS011;46342;49.046;11.920;2023-03-23T07:51:38;3.88;;;1.90;;
60494;SDS011;46342;49.046;11.920;2023-03-23T07:54:05;4.10;;;2.92;;
60494;SDS011;46342;49.046;11.920;2023-03-23T07:56:32;2.97;;;1.92;;
60494;SDS011;46342;49.046;11.920;2023-03-23T07:58:58;4.13;;;2.65;;
60494;SDS011;46342;49.046;11.920;2023-03-23T08:01:24;3.22;;;2.10;;
60494;SDS011;46342;49.046;11.920;2023-03-23T08:03:50;3.00;;;2.30;;
60494;SDS011;46342;49.046;11.920;2023-03-23T08:06:17;2.78;;;2.00;;
60494;SDS011;46342;49.046;11.920;2023-03-23T08:08:42;2.15;;;1.95;;
60494;SDS011;46342;49.046;11.920;2023-03-23T08:11:08;2.38;;;2.00;;
60494;SDS011;46342;49.046;11.920;2023-03-23T08:13:33;2.47;;;1.77;;
60494;SDS011;46342;49.046;11.920;2023-03-23T08:16:00;1.92;;;1.73;;
60494;SDS011;46342;49.046;11.920;2023-03-23T08:18:28;2.25;;;1.65;;
60494;SDS011;46342;49.046;11.920;2023-03-23T08:20:55;1.45;;;1.35;;
60494;SDS011;46342;49.046;11.920;2023-03-23T08:23:20;2.95;;;1.52;;
60494;SDS011;46342;49.046;11.920;2023-03-23T08:25:46;1.75;;;1.20;;
60494;SDS011;46342;49.046;11.920;2023-03-23T08:28:13;1.48;;;1.15;;
60494;SDS011;46342;49.046;11.920;2023-03-23T08:30:39;1.40;;;1.30;;
60494;SDS011;46342;49.046;11.920;2023-03-23T08:33:05;1.50;;;1.30;;
60494;SDS011;46342;49.046;11.920;2023-03-23T08:35:32;2.38;;;1.17;;
60494;SDS011;46342;49.046;11.920;2023-03-23T08:37:58;2.25;;;1.50;;
60494;SDS011;46342;49.046;11.920;2023-03-23T08:40:24;1.42;;;1.17;;
60494;SDS011;46342;49.046;11.920;2023-03-23T08:42:50;1.25;;;1.15;;
60494;SDS011;46342;49.046;11.920;2023-03-23T08:45:18;1.30;;;1.20;;
60494;SDS011;46342;49.046;11.920;2023-03-23T08:47:46;1.73;;;1.27;;
60494;SDS011;46342;49.046;11.920;2023-03-23T08:50:17;1.25;;;1.15;;
60494;SDS011;46342;49.046;11.920;2023-03-23T08:52:45;1.40;;;1.30;;
60494;SDS011;46342;49.046;11.920;2023-03-23T08:55:11;1.42;;;1.25;;
60494;SDS011;46342;49.046;11.920;2023-03-23T08:57:37;1.45;;;1.30;;
60494;SDS011;46342;49.046;11.920;2023-03-23T09:00:04;1.60;;;1.25;;
60494;SDS011;46342;49.046;11.920;2023-03-23T09:02:42;1.40;;;1.30;;
60494;SDS011;46342;49.046;11.920;2023-03-23T09:07:37;2.58;;;1.17;;
60494;SDS011;46342;49.046;11.920;2023-03-23T09:10:04;1.40;;;1.10;;
60494;SDS011;46342;49.046;11.920;2023-03-23T09:12:30;1.55;;;1.25;;
60494;SDS011;46342;49.046;11.920;2023-03-23T09:14:55;2.65;;;1.40;;
60494;SDS011;46342;49.046;11.920;2023-03-23T09:17:21;2.10;;;1.40;;
60494;SDS011;46342;49.046;11.920;2023-03-23T09:19:47;1.48;;;1.15;;
60494;SDS011;46342;49.046;11.920;2023-03-23T09:22:12;1.52;;;1.30;;
60494;SDS011;46342;49.046;11.920;2023-03-23T09:24:40;1.55;;;1.10;;
60494;SDS011;46342;49.046;11.920;2023-03-23T09:27:06;1.90;;;1.30;;
60494;SDS011;46342;49.046;11.920;2023-03-23T09:29:31;1.23;;;1.13;;
60494;SDS011;46342;49.046;11.920;2023-03-23T09:31:57;1.40;;;1.30;;
60494;SDS011;46342;49.046;11.920;2023-03-23T09:34:23;2.20;;;1.60;;
60494;SDS011;46342;49.046;11.920;2023-03-23T09:36:48;1.48;;;1.17;;
60494;SDS011;46342;49.046;11.920;2023-03-23T09:39:14;1.65;;;1.52;;
60494;SDS011;46342;49.046;11.920;2023-03-23T09:44:37;1.50;;;1.40;;
60494;SDS011;46342;49.046;11.920;2023-03-23T09:47:15;1.75;;;1.40;;
60494;SDS011;46342;49.046;11.920;2023-03-23T09:52:27;3.25;;;1.48;;
60494;SDS011;46342;49.046;11.920;2023-03-23T09:55:09;1.50;;;1.40;;
60494;SDS011;46342;49.046;11.920;2023-03-23T09:57:49;1.73;;;1.20;;
60494;SDS011;46342;49.046;11.920;2023-03-23T10:03:15;2.40;;;1.30;;
60494;SDS011;46342;49.046;11.920;2023-03-23T10:05:44;1.40;;;1.27;;
60494;SDS011;46342;49.046;11.920;2023-03-23T10:16:08;3.17;;;1.60;;
60494;SDS011;46342;49.046;11.920;2023-03-23T10:21:11;11.10;;;1.60;;
60494;SDS011;46342;49.046;11.920;2023-03-23T10:23:44;1.75;;;1.50;;
60494;SDS011;46342;49.046;11.920;2023-03-23T10:29:14;1.50;;;1.40;;
60494;SDS011;46342;49.046;11.920;2023-03-23T10:31:53;2.47;;;1.60;;
60494;SDS011;46342;49.046;11.920;2023-03-23T10:34:59;2.55;;;1.90;;
60494;SDS011;46342;49.046;11.920;2023-03-23T10:39:55;2.00;;;1.65;;
60494;SDS011;46342;49.046;11.920;2023-03-23T10:42:24;1.80;;;1.65;;
60494;SDS011;46342;49.046;11.920;2023-03-23T10:45:10;2.05;;;1.52;;
60494;SDS011;46342;49.046;11.920;2023-03-23T10:47:43;1.60;;;1.50;;
60494;SDS011;46342;49.046;11.920;2023-03-23T10:50:28;2.13;;;1.45;;
60494;SDS011;46342;49.046;11.920;2023-03-23T10:52:57;2.03;;;1.60;;
60494;SDS011;46342;49.046;11.920;2023-03-23T10:55:34;1.85;;;1.67;;
60494;SDS011;46342;49.046;11.920;2023-03-23T10:58:09;1.77;;;1.38;;
60494;SDS011;46342;49.046;11.920;2023-03-23T11:00:40;2.78;;;2.20;;
60494;SDS011;46342;49.046;11.920;2023-03-23T11:06:05;2.20;;;1.70;;
60494;SDS011;46342;49.046;11.920;2023-03-23T11:11:19;2.00;;;1.50;;
60494;SDS011;46342;49.046;11.920;2023-03-23T11:14:00;1.30;;;1.20;;
60494;SDS011;46342;49.046;11.920;2023-03-23T11:16:41;1.50;;;1.38;;
60494;SDS011;46342;49.046;11.920;2023-03-23T11:19:20;2.65;;;1.30;;
60494;SDS011;46342;49.046;11.920;2023-03-23T11:21:50;1.27;;;1.17;;
60494;SDS011;46342;49.046;11.920;2023-03-23T11:24:18;1.38;;;1.25;;
60494;SDS011;46342;49.046;11.920;2023-03-23T11:26:48;1.10;;;1.00;;
60494;SDS011;46342;49.046;11.920;2023-03-23T11:29:15;2.63;;;1.15;;
60494;SDS011;46342;49.046;11.920;2023-03-23T11:31:45;1.83;;;1.35;;
60494;SDS011;46342;49.046;11.920;2023-03-23T11:39:30;1.27;;;1.17;;
60494;SDS011;46342;49.046;11.920;2023-03-23T11:41:58;1.98;;;0.95;;
60494;SDS011;46342;49.046;11.920;2023-03-23T11:44:33;1.00;;;1.00;;
60494;SDS011;46342;49.046;11.920;2023-03-23T11:47:08;1.20;;;1.02;;
60494;SDS011;46342;49.046;11.920;2023-03-23T11:49:54;1.30;;;1.20;;
60494;SDS011;46342;49.046;11.920;2023-03-23T11:55:22;1.38;;;0.90;;
60494;SDS011;46342;49.046;11.920;2023-03-23T11:58:06;3.58;;;1.45;;
60494;SDS011;46342;49.046;11.920;2023-03-23T12:00:38;1.42;;;1.20;;
60494;SDS011;46342;49.046;11.920;2023-03-23T12:03:31;1.10;;;1.00;;
60494;SDS011;46342;49.046;11.920;2023-03-23T12:06:01;1.45;;;1.15;;
60494;SDS011;46342;49.046;11.920;2023-03-23T12:30:02;1.10;;;1.00;;
60494;SDS011;46342;49.046;11.920;2023-03-23T12:32:45;3.72;;;1.40;;
60494;SDS011;46342;49.046;11.920;2023-03-23T12:41:25;1.13;;;1.02;;
60494;SDS011;46342;49.046;11.920;2023-03-23T12:44:00;3.22;;;1.48;;
60494;SDS011;46342;49.046;11.920;2023-03-23T12:46:53;1.50;;;1.20;;
60494;SDS011;46342;49.046;11.920;2023-03-23T12:49:29;1.20;;;1.10;;
60494;SDS011;46342;49.046;11.920;2023-03-23T12:52:20;1.20;;;1.10;;
60494;SDS011;46342;49.046;11.920;2023-03-23T12:55:14;1.70;;;1.20;;
60494;SDS011;46342;49.046;11.920;2023-03-23T12:57:54;1.98;;;1.40;;
60494;SDS011;46342;49.046;11.920;2023-03-23T13:00:30;1.30;;;1.20;;
60494;SDS011;46342;49.046;11.920;2023-03-23T13:03:49;1.10;;;1.00;;
60494;SDS011;46342;49.046;11.920;2023-03-23T13:06:34;1.20;;;1.10;;
60494;SDS011;46342;49.046;11.920;2023-03-23T13:09:09;1.15;;;1.05;;
60494;SDS011;46342;49.046;11.920;2023-03-23T13:11:55;1.65;;;1.23;;
60494;SDS011;46342;49.046;11.920;2023-03-23T13:23:08;1.00;;;0.90;;
60494;SDS011;46342;49.046;11.920;2023-03-23T13:28:20;0.98;;;0.98;;
60494;SDS011;46342;49.046;11.920;2023-03-23T13:31:00;1.40;;;1.15;;
60494;SDS011;46342;49.046;11.920;2023-03-23T13:33:50;1.15;;;1.00;;
60494;SDS011;46342;49.046;11.920;2023-03-23T13:36:32;1.98;;;1.05;;
60494;SDS011;46342;49.046;11.920;2023-03-23T13:39:02;1.40;;;1.30;;
60494;SDS011;46342;49.046;11.920;2023-03-23T13:41:33;1.10;;;1.00;;
60494;SDS011;46342;49.046;11.920;2023-03-23T13:44:15;1.33;;;1.23;;
60494;SDS011;46342;49.046;11.920;2023-03-23T13:46:53;1.00;;;1.00;;
60494;SDS011;46342;49.046;11.920;2023-03-23T13:49:21;0.90;;;0.90;;
60494;SDS011;46342;49.046;11.920;2023-03-23T13:51:52;1.20;;;1.00;;
60494;SDS011;46342;49.046;11.920;2023-03-23T13:54:40;0.95;;;0.95;;
60494;SDS011;46342;49.046;11.920;2023-03-23T13:57:22;2.72;;;1.10;;
60494;SDS011;46342;49.046;11.920;2023-03-23T14:00:10;1.95;;;1.25;;
60494;SDS011;46342;49.046;11.920;2023-03-23T14:02:49;1.00;;;0.90;;
60494;SDS011;46342;49.046;11.920;2023-03-23T14:07:54;2.38;;;1.10;;
60494;SDS011;46342;49.046;11.920;2023-03-23T14:10:21;1.35;;;1.10;;
60494;SDS011;46342;49.046;11.920;2023-03-23T14:12:48;1.30;;;1.20;;
60494;SDS011;46342;49.046;11.920;2023-03-23T14:15:17;0.98;;;0.98;;
60494;SDS011;46342;49.046;11.920;2023-03-23T14:17:43;5.82;;;4.30;;
60494;SDS011;46342;49.046;11.920;2023-03-23T14:20:17;6.20;;;4.47;;
60494;SDS011;46342;49.046;11.920;2023-03-23T14:22:55;22.23;;;10.73;;
60494;SDS011;46342;49.046;11.920;2023-03-23T14:25:21;6.60;;;3.47;;
60494;SDS011;46342;49.046;11.920;2023-03-23T14:27:51;9.45;;;3.40;;
60494;SDS011;46342;49.046;11.920;2023-03-23T14:30:22;6.95;;;4.63;;
60494;SDS011;46342;49.046;11.920;2023-03-23T14:32:52;7.50;;;4.75;;
60494;SDS011;46342;49.046;11.920;2023-03-23T14:35:28;5.43;;;4.43;;
60494;SDS011;46342;49.046;11.920;2023-03-23T14:37:59;5.28;;;3.78;;
60494;SDS011;46342;49.046;11.920;2023-03-23T14:40:26;5.47;;;3.67;;
60494;SDS011;46342;49.046;11.920;2023-03-23T14:42:52;3.05;;;2.72;;
60494;SDS011;46342;49.046;11.920;2023-03-23T14:45:20;2.72;;;2.05;;
60494;SDS011;46342;49.046;11.920;2023-03-23T14:47:48;2.20;;;1.90;;
60494;SDS011;46342;49.046;11.920;2023-03-23T14:50:30;4.40;;;2.42;;
60494;SDS011;46342;49.046;11.920;2023-03-23T14:53:26;3.40;;;1.50;;
60494;SDS011;46342;49.046;11.920;2023-03-23T14:56:12;4.03;;;1.95;;
60494;SDS011;46342;49.046;11.920;2023-03-23T14:58:48;1.25;;;1.15;;
60494;SDS011;46342;49.046;11.920;2023-03-23T15:01:19;1.90;;;1.70;;
60494;SDS011;46342;49.046;11.920;2023-03-23T15:03:49;3.03;;;1.88;;
60494;SDS011;46342;49.046;11.920;2023-03-23T15:06:21;2.67;;;1.60;;
60494;SDS011;46342;49.046;11.920;2023-03-23T15:08:50;2.85;;;2.17;;
60494;SDS011;46342;49.046;11.920;2023-03-23T15:11:24;1.40;;;1.30;;
60494;SDS011;46342;49.046;11.920;2023-03-23T15:13:54;1.30;;;1.20;;
60494;SDS011;46342;49.046;11.920;2023-03-23T15:16:25;3.63;;;2.20;;
60494;SDS011;46342;49.046;11.920;2023-03-23T15:19:03;1.45;;;1.10;;
60494;SDS011;46342;49.046;11.920;2023-03-23T15:21:35;2.00;;;1.80;;
60494;SDS011;46342;49.046;11.920;2023-03-23T15:32:42;1.25;;;1.17;;
60494;SDS011;46342;49.046;11.920;2023-03-23T15:35:14;3.20;;;2.42;;
60494;SDS011;46342;49.046;11.920;2023-03-23T15:40:24;1.92;;;1.05;;
60494;SDS011;46342;49.046;11.920;2023-03-23T15:46:00;3.60;;;2.03;;
60494;SDS011;46342;49.046;11.920;2023-03-23T15:48:48;1.80;;;1.40;;
60494;SDS011;46342;49.046;11.920;2023-03-23T15:51:16;1.73;;;1.63;;
60494;SDS011;46342;49.046;11.920;2023-03-23T15:53:44;2.55;;;1.58;;
60494;SDS011;46342;49.046;11.920;2023-03-23T15:56:10;1.23;;;1.13;;
60494;SDS011;46342;49.046;11.920;2023-03-23T16:01:15;1.48;;;1.13;;
60494;SDS011;46342;49.046;11.920;2023-03-23T16:03:47;1.20;;;1.10;;
60494;SDS011;46342;49.046;11.920;2023-03-23T16:06:14;1.30;;;1.20;;
60494;SDS011;46342;49.046;11.920;2023-03-23T16:08:42;1.50;;;1.17;;
60494;SDS011;46342;49.046;11.920;2023-03-23T16:11:11;1.25;;;1.15;;
60494;SDS011;46342;49.046;11.920;2023-03-23T16:13:41;1.80;;;1.50;;
60494;SDS011;46342;49.046;11.920;2023-03-23T16:16:15;1.90;;;1.50;;
60494;SDS011;46342;49.046;11.920;2023-03-23T16:19:01;2.67;;;1.83;;
60494;SDS011;46342;49.046;11.920;2023-03-23T16:21:27;1.90;;;1.60;;
60494;SDS011;46342;49.046;11.920;2023-03-23T16:23:53;1.70;;;1.40;;
60494;SDS011;46342;49.046;11.920;2023-03-23T16:26:19;2.40;;;1.52;;
60494;SDS011;46342;49.046;11.920;2023-03-23T16:28:44;2.67;;;1.77;;
60494;SDS011;46342;49.046;11.920;2023-03-23T16:31:10;1.77;;;1.40;;
60494;SDS011;46342;49.046;11.920;2023-03-23T16:33:37;1.73;;;1.50;;
60494;SDS011;46342;49.046;11.920;2023-03-23T16:36:03;2.83;;;1.80;;
60494;SDS011;46342;49.046;11.920;2023-03-23T16:38:29;1.42;;;1.33;;
60494;SDS011;46342;49.046;11.920;2023-03-23T16:40:54;1.33;;;1.23;;
60494;SDS011;46342;49.046;11.920;2023-03-23T16:43:20;1.50;;;1.40;;
60494;SDS011;46342;49.046;11.920;2023-03-23T16:45:46;2.28;;;1.60;;